Time,TemperatureF,DewpointF,PressureIn,WindDirection,WindDirectionDegrees,WindSpeedMPH,WindSpeedGustMPH,Humidity,HourlyPrecipIn,Conditions,Clouds,dailyrainin,SoftwareType,DateUTC
2013-05-11 00:00:00,71.0,68.0,30.05,NNE,30,0.0,-999.0,91,-99.99,,,0.00,weatherlink.com 1.10,2013-05-11 04:00:00,
2013-05-11 00:15:00,70.7,68.0,30.05,NNE,30,0.0,-999.0,92,-99.99,,,0.00,weatherlink.com 1.10,2013-05-11 04:15:00,
2013-05-11 00:34:00,70.4,68.0,30.04,NNE,31,0.0,-999.0,93,-99.99,,,0.00,weatherlink.com 1.10,2013-05-11 04:34:00,
2013-05-11 00:45:00,70.1,68.0,30.04,NNE,31,0.0,-999.0,93,-99.99,,,0.00,weatherlink.com 1.10,2013-05-11 04:45:00,
2013-05-11 01:00:00,70.2,69.0,30.03,NNW,339,0.0,-999.0,94,-99.99,,,0.00,weatherlink.com 1.10,2013-05-11 05:00:00,
2013-05-11 01:15:00,70.5,68.0,30.03,NW,321,0.0,-999.0,93,-99.99,,,0.00,weatherlink.com 1.10,2013-05-11 05:15:00,
2013-05-11 01:34:00,70.6,69.0,30.03,NW,321,0.0,-999.0,93,-99.99,,,0.00,weatherlink.com 1.10,2013-05-11 05:34:00,
2013-05-11 01:45:00,70.4,68.0,30.03,NW,321,0.0,-999.0,93,-99.99,,,0.00,weatherlink.com 1.10,2013-05-11 05:45:00,
2013-05-11 02:00:00,70.2,68.0,30.02,NW,321,0.0,-999.0,93,-99.99,,,0.00,weatherlink.com 1.10,2013-05-11 06:00:00,
2013-05-11 02:15:00,69.9,68.0,30.02,NW,321,0.0,-999.0,94,-99.99,,,0.00,weatherlink.com 1.10,2013-05-11 06:15:00,
2013-05-11 02:34:00,69.7,68.0,30.02,NW,321,0.0,-999.0,94,-99.99,,,0.00,weatherlink.com 1.10,2013-05-11 06:34:00,
2013-05-11 02:45:00,69.2,68.0,30.02,NW,322,0.0,-999.0,94,-99.99,,,0.00,weatherlink.com 1.10,2013-05-11 06:45:00,
2013-05-11 03:00:00,69.1,67.0,30.01,NW,321,0.0,-999.0,94,-99.99,,,0.00,weatherlink.com 1.10,2013-05-11 07:00:00,
2013-05-11 03:15:00,69.2,68.0,30.01,NW,321,0.0,-999.0,95,-99.99,,,0.00,weatherlink.com 1.10,2013-05-11 07:15:00,
2013-05-11 03:34:00,69.5,68.0,30.01,NW,321,0.0,-999.0,96,-99.99,,,0.00,weatherlink.com 1.10,2013-05-11 07:34:00,
2013-05-11 03:45:00,69.4,68.0,30.01,NW,321,0.0,-999.0,95,-99.99,,,0.00,weatherlink.com 1.10,2013-05-11 07:45:00,
2013-05-11 04:00:00,69.1,68.0,30.00,NW,322,0.0,-999.0,95,-99.99,,,0.00,weatherlink.com 1.10,2013-05-11 08:00:00,
2013-05-11 04:15:00,68.9,68.0,30.00,NW,321,0.0,-999.0,96,-99.99,,,0.00,weatherlink.com 1.10,2013-05-11 08:15:00,
2013-05-11 04:34:00,68.5,67.0,30.00,NW,322,0.0,-999.0,96,-99.99,,,0.00,weatherlink.com 1.10,2013-05-11 08:34:00,
2013-05-11 04:45:00,68.1,67.0,29.99,NW,322,0.0,-999.0,96,-99.99,,,0.00,weatherlink.com 1.10,2013-05-11 08:45:00,
2013-05-11 05:00:00,67.9,67.0,29.98,NW,322,0.0,-999.0,96,-99.99,,,0.00,weatherlink.com 1.10,2013-05-11 09:00:00,
2013-05-11 05:15:00,67.9,67.0,29.98,NW,322,0.0,-999.0,96,-99.99,,,0.00,weatherlink.com 1.10,2013-05-11 09:15:00,
2013-05-11 05:34:00,68.2,67.0,29.98,NW,322,0.0,-999.0,97,-99.99,,,0.00,weatherlink.com 1.10,2013-05-11 09:34:00,
2013-05-11 05:45:00,68.1,67.0,29.99,NW,322,0.0,-999.0,97,-99.99,,,0.00,weatherlink.com 1.10,2013-05-11 09:45:00,
2013-05-11 06:00:00,68.0,67.0,29.99,NW,321,0.0,-999.0,96,-99.99,,,0.00,weatherlink.com 1.10,2013-05-11 10:00:00,
2013-05-11 06:15:00,67.9,67.0,30.00,NW,321,0.0,-999.0,96,-99.99,,,0.00,weatherlink.com 1.10,2013-05-11 10:15:00,
2013-05-11 06:34:00,67.8,67.0,30.00,NW,321,0.0,-999.0,96,-99.99,,,0.00,weatherlink.com 1.10,2013-05-11 10:34:00,
2013-05-11 06:45:00,67.8,67.0,30.01,NW,321,0.0,-999.0,96,-99.99,,,0.00,weatherlink.com 1.10,2013-05-11 10:45:00,
2013-05-11 07:00:00,67.7,67.0,30.02,NW,322,0.0,-999.0,96,-99.99,,,0.00,weatherlink.com 1.10,2013-05-11 11:00:00,
2013-05-11 07:15:00,67.8,67.0,30.02,NW,321,0.0,-999.0,96,-99.99,,,0.00,weatherlink.com 1.10,2013-05-11 11:15:00,
2013-05-11 07:34:00,67.9,67.0,30.02,NW,322,0.0,-999.0,96,-99.99,,,0.00,weatherlink.com 1.10,2013-05-11 11:34:00,
2013-05-11 07:45:00,68.0,67.0,30.01,NW,322,0.0,-999.0,96,-99.99,,,0.00,weatherlink.com 1.10,2013-05-11 11:45:00,
2013-05-11 08:00:00,68.3,67.0,30.01,NW,321,0.0,-999.0,96,-99.99,,,0.00,weatherlink.com 1.10,2013-05-11 12:00:00,
2013-05-11 08:15:00,68.8,68.0,30.01,NW,322,0.0,-999.0,96,-99.99,,,0.00,weatherlink.com 1.10,2013-05-11 12:15:00,
2013-05-11 08:34:00,69.4,68.0,30.01,NW,321,0.0,-999.0,95,-99.99,,,0.00,weatherlink.com 1.10,2013-05-11 12:34:00,
2013-05-11 08:45:00,70.0,68.0,30.02,WNW,290,0.0,-999.0,94,-99.99,,,0.00,weatherlink.com 1.10,2013-05-11 12:45:00,
2013-05-11 09:00:00,70.5,68.0,30.02,WNW,290,0.0,-999.0,92,-99.99,,,0.00,weatherlink.com 1.10,2013-05-11 13:00:00,
2013-05-11 09:15:00,71.5,69.0,30.02,WNW,290,0.0,-999.0,91,-99.99,,,0.00,weatherlink.com 1.10,2013-05-11 13:15:00,
2013-05-11 09:34:00,72.7,70.0,30.03,WNW,289,0.0,-999.0,91,-99.99,,,0.00,weatherlink.com 1.10,2013-05-11 13:34:00,
2013-05-11 09:45:00,74.9,69.0,30.03,West,264,0.0,-999.0,83,-99.99,,,0.00,weatherlink.com 1.10,2013-05-11 13:45:00,
2013-05-11 10:00:00,76.0,71.0,30.02,West,267,0.0,-999.0,83,-99.99,,,0.00,weatherlink.com 1.10,2013-05-11 14:00:00,
2013-05-11 10:16:00,77.7,70.0,30.02,WNW,296,1.0,-999.0,77,-99.99,,,0.00,weatherlink.com 1.10,2013-05-11 14:16:00,
2013-05-11 10:35:00,78.9,71.0,30.02,WSW,248,0.0,-999.0,76,-99.99,,,0.00,weatherlink.com 1.10,2013-05-11 14:35:00,
2013-05-11 10:46:00,80.4,71.0,30.02,WSW,254,1.0,-999.0,72,-99.99,,,0.00,weatherlink.com 1.10,2013-05-11 14:46:00,
2013-05-11 11:01:00,81.5,71.0,30.02,SE,132,1.0,-999.0,70,-99.99,,,0.00,weatherlink.com 1.10,2013-05-11 15:01:00,
2013-05-11 11:16:00,82.0,71.0,30.02,West,273,0.0,-999.0,70,-99.99,,,0.00,weatherlink.com 1.10,2013-05-11 15:16:00,
2013-05-11 11:35:00,82.6,72.0,30.01,NNE,15,1.0,-999.0,71,-99.99,,,0.00,weatherlink.com 1.10,2013-05-11 15:35:00,
2013-05-11 11:46:00,82.6,72.0,30.01,ESE,114,0.0,-999.0,70,-99.99,,,0.00,weatherlink.com 1.10,2013-05-11 15:46:00,
2013-05-11 12:01:00,82.4,71.0,30.00,SE,141,0.0,-999.0,69,-99.99,,,0.00,weatherlink.com 1.10,2013-05-11 16:01:00,
2013-05-11 12:16:00,83.0,73.0,30.00,NNE,25,0.0,-999.0,71,-99.99,,,0.00,weatherlink.com 1.10,2013-05-11 16:16:00,
2013-05-11 12:35:00,83.9,72.0,30.00,NW,314,1.0,-999.0,68,-99.99,,,0.00,weatherlink.com 1.10,2013-05-11 16:35:00,
2013-05-11 12:46:00,84.5,73.0,30.00,West,279,1.0,-999.0,68,-99.99,,,0.00,weatherlink.com 1.10,2013-05-11 16:46:00,
2013-05-11 13:01:00,85.9,73.0,29.98,SE,129,0.0,-999.0,65,-99.99,,,0.00,weatherlink.com 1.10,2013-05-11 17:01:00,
2013-05-11 13:16:00,86.9,72.0,29.97,NE,36,0.0,-999.0,62,-99.99,,,0.00,weatherlink.com 1.10,2013-05-11 17:16:00,
2013-05-11 13:35:00,86.5,72.0,29.96,WSW,246,1.0,-999.0,62,-99.99,,,0.00,weatherlink.com 1.10,2013-05-11 17:35:00,
2013-05-11 13:46:00,86.9,73.0,29.96,SW,235,2.0,-999.0,64,-99.99,,,0.00,weatherlink.com 1.10,2013-05-11 17:46:00,
2013-05-11 14:01:00,86.6,73.0,29.96,SW,219,1.0,-999.0,64,-99.99,,,0.00,weatherlink.com 1.10,2013-05-11 18:01:00,
2013-05-11 14:16:00,86.9,73.0,29.96,WSW,241,1.0,-999.0,63,-99.99,,,0.00,weatherlink.com 1.10,2013-05-11 18:16:00,
2013-05-11 14:35:00,86.5,72.0,29.95,ENE,58,0.0,-999.0,62,-99.99,,,0.00,weatherlink.com 1.10,2013-05-11 18:35:00,
2013-05-11 14:46:00,86.6,72.0,29.95,NW,310,1.0,-999.0,63,-99.99,,,0.00,weatherlink.com 1.10,2013-05-11 18:46:00,
2013-05-11 15:01:00,87.0,72.0,29.94,WNW,294,0.0,-999.0,62,-99.99,,,0.00,weatherlink.com 1.10,2013-05-11 19:01:00,
2013-05-11 15:16:00,87.5,70.0,29.94,NW,325,0.0,-999.0,57,-99.99,,,0.00,weatherlink.com 1.10,2013-05-11 19:16:00,
2013-05-11 15:35:00,86.9,71.0,29.93,WNW,286,0.0,-999.0,59,-99.99,,,0.00,weatherlink.com 1.10,2013-05-11 19:35:00,
2013-05-11 15:46:00,87.8,71.0,29.93,West,275,1.0,-999.0,57,-99.99,,,0.00,weatherlink.com 1.10,2013-05-11 19:46:00,
2013-05-11 16:01:00,86.4,73.0,29.92,East,82,0.0,-999.0,64,-99.99,,,0.00,weatherlink.com 1.10,2013-05-11 20:01:00,
2013-05-11 16:16:00,85.1,73.0,29.91,East,83,0.0,-999.0,68,-99.99,,,0.00,weatherlink.com 1.10,2013-05-11 20:16:00,
2013-05-11 16:35:00,80.8,72.0,29.93,WSW,257,1.0,-999.0,74,-99.99,,,0.00,weatherlink.com 1.10,2013-05-11 20:35:00,
2013-05-11 16:46:00,75.5,70.0,29.95,NE,47,2.0,-999.0,83,-99.99,,,0.00,weatherlink.com 1.10,2013-05-11 20:46:00,
2013-05-11 17:01:00,73.5,69.0,29.95,ENE,62,0.0,-999.0,86,-99.99,,,0.00,weatherlink.com 1.10,2013-05-11 21:01:00,
2013-05-11 17:16:00,73.9,71.0,29.95,SE,144,0.0,-999.0,89,-99.99,,,0.00,weatherlink.com 1.10,2013-05-11 21:16:00,
2013-05-11 17:35:00,74.9,72.0,29.96,East,92,0.0,-999.0,90,-99.99,,,0.01,weatherlink.com 1.10,2013-05-11 21:35:00,
2013-05-11 17:46:00,75.5,72.0,29.96,WNW,300,0.0,-999.0,89,-99.99,,,0.01,weatherlink.com 1.10,2013-05-11 21:46:00,
2013-05-11 18:01:00,75.7,72.0,29.96,NE,38,0.0,-999.0,89,-99.99,,,0.01,weatherlink.com 1.10,2013-05-11 22:01:00,
2013-05-11 18:16:00,75.7,72.0,29.95,NE,38,0.0,-999.0,87,-99.99,,,0.01,weatherlink.com 1.10,2013-05-11 22:16:00,
2013-05-11 18:35:00,76.0,71.0,29.95,West,265,0.0,-999.0,85,-99.99,,,0.01,weatherlink.com 1.10,2013-05-11 22:35:00,
2013-05-11 18:46:00,76.8,71.0,29.97,NW,314,0.0,-999.0,82,-99.99,,,0.01,weatherlink.com 1.10,2013-05-11 22:46:00,
2013-05-11 19:01:00,77.0,71.0,29.97,West,265,0.0,-999.0,81,-99.99,,,0.01,weatherlink.com 1.10,2013-05-11 23:01:00,
2013-05-11 19:16:00,76.7,68.0,29.98,West,267,1.0,-999.0,75,-99.99,,,0.01,weatherlink.com 1.10,2013-05-11 23:16:00,
2013-05-11 19:35:00,73.4,68.0,29.98,West,268,0.0,-999.0,82,-99.99,,,0.01,weatherlink.com 1.10,2013-05-11 23:35:00,
2013-05-11 19:46:00,72.0,67.0,29.98,WSW,252,0.0,-999.0,85,-99.99,,,0.01,weatherlink.com 1.10,2013-05-11 23:46:00,
2013-05-11 20:01:00,71.5,67.0,29.99,West,269,0.0,-999.0,86,-99.99,,,0.01,weatherlink.com 1.10,2013-05-12 00:01:00,
2013-05-11 20:16:00,71.2,67.0,29.98,NW,319,0.0,-999.0,87,-99.99,,,0.01,weatherlink.com 1.10,2013-05-12 00:16:00,
2013-05-11 20:35:00,70.9,67.0,29.97,NW,321,0.0,-999.0,87,-99.99,,,0.01,weatherlink.com 1.10,2013-05-12 00:35:00,
2013-05-11 20:46:00,70.7,67.0,29.96,NW,322,0.0,-999.0,88,-99.99,,,0.01,weatherlink.com 1.10,2013-05-12 00:46:00,
2013-05-11 21:01:00,70.6,67.0,29.95,East,98,0.0,-999.0,89,-99.99,,,0.01,weatherlink.com 1.10,2013-05-12 01:01:00,
2013-05-11 21:16:00,70.4,67.0,29.93,East,98,0.0,-999.0,90,-99.99,,,0.01,weatherlink.com 1.10,2013-05-12 01:16:00,
2013-05-11 21:35:00,70.1,67.0,29.95,East,98,0.0,-999.0,90,-99.99,,,0.01,weatherlink.com 1.10,2013-05-12 01:35:00,
2013-05-11 21:46:00,69.8,67.0,29.95,East,99,0.0,-999.0,91,-99.99,,,0.01,weatherlink.com 1.10,2013-05-12 01:46:00,
2013-05-11 22:01:00,69.8,67.0,29.96,East,98,0.0,-999.0,92,-99.99,,,0.01,weatherlink.com 1.10,2013-05-12 02:01:00,
2013-05-11 22:16:00,69.8,67.0,29.96,NE,34,0.0,-999.0,92,-99.99,,,0.01,weatherlink.com 1.10,2013-05-12 02:16:00,
2013-05-11 22:35:00,69.6,68.0,29.97,WNW,293,0.0,-999.0,93,-99.99,,,0.01,weatherlink.com 1.10,2013-05-12 02:35:00,
2013-05-11 22:46:00,69.3,67.0,29.98,WNW,294,0.0,-999.0,93,-99.99,,,0.01,weatherlink.com 1.10,2013-05-12 02:46:00,
2013-05-11 23:01:00,68.9,67.0,29.98,WNW,294,0.0,-999.0,93,-99.99,,,0.01,weatherlink.com 1.10,2013-05-12 03:01:00,
2013-05-11 23:16:00,68.4,66.0,29.98,WNW,294,0.0,-999.0,93,-99.99,,,0.01,weatherlink.com 1.10,2013-05-12 03:16:00,
2013-05-11 23:35:00,68.1,66.0,29.98,WNW,293,0.0,-999.0,93,-99.99,,,0.01,weatherlink.com 1.10,2013-05-12 03:35:00,
2013-05-11 23:46:00,67.7,66.0,29.99,WNW,294,0.0,-999.0,94,-99.99,,,0.01,weatherlink.com 1.10,2013-05-12 03:46:00,